createdAt,value
2022-09-23T00:00:17.934Z,8.60
2022-09-23T00:02:49.196Z,8.70
2022-09-23T00:05:18.032Z,8.70
2022-09-23T00:07:46.456Z,8.70
2022-09-23T00:10:14.870Z,8.70
2022-09-23T00:12:43.270Z,8.80
2022-09-23T00:15:13.733Z,8.90
2022-09-23T00:17:42.419Z,8.80
2022-09-23T00:20:12.145Z,8.70
2022-09-23T00:22:41.570Z,8.70
2022-09-23T00:25:29.884Z,8.70
2022-09-23T00:27:59.287Z,8.70
2022-09-23T00:30:29.838Z,8.70
2022-09-23T00:32:58.469Z,8.70
2022-09-23T00:35:27.110Z,8.50
2022-09-23T00:37:56.369Z,8.50
2022-09-23T00:40:25.132Z,8.50
2022-09-23T00:42:53.500Z,8.50
2022-09-23T00:45:22.056Z,8.60
2022-09-23T00:47:55.015Z,8.60
2022-09-23T00:50:30.287Z,8.70
2022-09-23T00:53:01.934Z,8.70
2022-09-23T00:55:36.261Z,8.80
2022-09-23T00:58:08.813Z,8.90
2022-09-23T01:00:37.410Z,9.00
2022-09-23T01:03:09.609Z,9.00
2022-09-23T01:05:40.014Z,9.10
2022-09-23T01:08:10.490Z,9.10
2022-09-23T01:10:54.017Z,9.10
2022-09-23T01:13:28.598Z,9.20
2022-09-23T01:16:06.157Z,9.10
2022-09-23T01:18:42.253Z,9.00
2022-09-23T01:21:24.225Z,9.10
2022-09-23T01:24:39.637Z,9.10
2022-09-23T01:27:16.252Z,9.00
2022-09-23T01:30:06.552Z,8.90
2022-09-23T01:32:42.540Z,8.80
2022-09-23T01:35:20.848Z,8.70
2022-09-23T01:37:57.461Z,8.60
2022-09-23T01:40:33.028Z,8.50
2022-09-23T01:43:06.773Z,8.40
2022-09-23T01:45:40.693Z,8.40
2022-09-23T01:48:19.345Z,8.30
2022-09-23T01:51:00.758Z,8.20
2022-09-23T01:53:38.028Z,8.20
2022-09-23T01:56:12.160Z,8.10
2022-09-23T01:58:46.919Z,8.10
2022-09-23T02:01:21.157Z,8.10
2022-09-23T02:03:57.000Z,8.00
2022-09-23T02:06:31.631Z,8.00
2022-09-23T02:09:02.104Z,8.00
2022-09-23T02:11:36.488Z,7.90
2022-09-23T02:14:10.346Z,7.90
2022-09-23T02:16:42.767Z,7.90
2022-09-23T02:19:15.577Z,7.80
2022-09-23T02:21:48.774Z,7.90
2022-09-23T02:24:21.153Z,7.90
2022-09-23T02:26:54.731Z,7.90
2022-09-23T02:29:30.549Z,7.90
2022-09-23T02:32:02.441Z,7.90
2022-09-23T02:34:44.520Z,7.90
2022-09-23T02:37:24.922Z,8.00
2022-09-23T02:40:00.386Z,8.00
2022-09-23T02:42:39.221Z,8.10
2022-09-23T02:45:08.459Z,8.10
2022-09-23T02:47:39.808Z,8.20
2022-09-23T02:50:10.641Z,8.30
2022-09-23T02:52:39.502Z,8.30
2022-09-23T02:55:12.455Z,8.30
2022-09-23T02:57:41.104Z,8.30
2022-09-23T03:00:11.116Z,8.40
2022-09-23T03:03:05.442Z,8.40
2022-09-23T03:05:40.266Z,8.40
2022-09-23T03:08:22.637Z,8.40
2022-09-23T03:10:57.841Z,8.30
2022-09-23T03:13:35.398Z,8.30
2022-09-23T03:16:11.987Z,8.30
2022-09-23T03:18:43.373Z,8.40
2022-09-23T03:21:17.817Z,8.30
2022-09-23T03:23:48.343Z,8.20
2022-09-23T03:26:21.514Z,8.30
2022-09-23T03:28:51.764Z,8.30
2022-09-23T03:31:20.368Z,8.20
2022-09-23T03:33:52.212Z,8.20
2022-09-23T03:36:44.655Z,8.10
2022-09-23T03:39:23.829Z,8.00
2022-09-23T03:41:56.640Z,8.00
2022-09-23T03:44:25.066Z,7.90
2022-09-23T03:46:53.558Z,7.80
2022-09-23T03:49:27.734Z,7.70
2022-09-23T03:51:58.471Z,7.60
2022-09-23T03:54:30.045Z,7.60
2022-09-23T03:56:58.625Z,7.50
2022-09-23T03:59:27.566Z,7.40
2022-09-23T04:01:56.846Z,7.40
2022-09-23T04:04:25.407Z,7.40
2022-09-23T04:06:54.495Z,7.40
2022-09-23T04:09:24.949Z,7.40
2022-09-23T04:11:54.178Z,7.50
2022-09-23T04:14:23.667Z,7.40
2022-09-23T04:16:53.391Z,7.30
2022-09-23T04:19:22.041Z,7.30
2022-09-23T04:21:51.153Z,7.40
2022-09-23T04:24:19.716Z,7.40
2022-09-23T04:26:53.588Z,7.40
2022-09-23T04:29:22.706Z,7.50
2022-09-23T04:31:51.883Z,7.60
2022-09-23T04:34:21.017Z,7.60
2022-09-23T04:36:50.749Z,7.60
2022-09-23T04:39:20.293Z,7.70
2022-09-23T04:41:50.336Z,7.70
2022-09-23T04:44:20.681Z,7.80
2022-09-23T04:46:49.459Z,7.90
2022-09-23T04:49:18.772Z,8.00
2022-09-23T04:51:47.949Z,8.00
2022-09-23T04:54:16.543Z,8.10
2022-09-23T04:56:44.934Z,8.10
2022-09-23T04:59:15.049Z,8.10
2022-09-23T05:01:43.819Z,8.20
2022-09-23T05:04:14.148Z,8.30
2022-09-23T05:06:46.266Z,8.20
2022-09-23T05:09:17.548Z,8.20
2022-09-23T05:11:46.410Z,8.30
2022-09-23T05:14:16.391Z,8.20
2022-09-23T05:16:44.918Z,8.20
2022-09-23T05:19:13.697Z,8.20
2022-09-23T05:21:42.447Z,8.10
2022-09-23T05:24:11.020Z,8.00
2022-09-23T05:26:39.773Z,7.90
2022-09-23T05:29:08.887Z,7.80
2022-09-23T05:31:38.865Z,7.70
2022-09-23T05:34:08.178Z,7.60
2022-09-23T05:36:39.129Z,7.50
2022-09-23T05:39:09.339Z,7.50
2022-09-23T05:41:40.382Z,7.40
2022-09-23T05:44:08.969Z,7.30
2022-09-23T05:46:38.966Z,7.20
2022-09-23T05:49:08.048Z,7.20
2022-09-23T05:51:37.022Z,7.20
2022-09-23T05:54:06.503Z,7.20
2022-09-23T05:56:36.122Z,7.40
2022-09-23T05:59:06.403Z,7.50
2022-09-23T06:01:38.858Z,7.60
2022-09-23T06:04:13.617Z,7.90
2022-09-23T06:06:43.912Z,8.10
2022-09-23T06:09:14.940Z,8.30
2022-09-23T06:11:44.038Z,8.60
2022-09-23T06:14:15.144Z,8.80
2022-09-23T06:16:45.184Z,9.00
2022-09-23T06:19:15.700Z,9.20
2022-09-23T06:21:44.483Z,9.40
2022-09-23T06:24:17.572Z,9.50
2022-09-23T06:26:49.645Z,9.60
2022-09-23T06:29:18.353Z,9.80
2022-09-23T06:31:47.027Z,9.90
2022-09-23T06:34:17.674Z,10.00
2022-09-23T06:36:46.890Z,10.20
2022-09-23T06:39:16.254Z,10.40
2022-09-23T06:41:45.630Z,10.60
2022-09-23T06:44:15.027Z,10.90
2022-09-23T06:46:44.472Z,11.20
2022-09-23T06:49:13.575Z,11.50
2022-09-23T06:51:43.944Z,11.80
2022-09-23T06:54:12.366Z,12.00
2022-09-23T06:56:40.951Z,12.30
2022-09-23T06:59:13.211Z,12.50
2022-09-23T07:01:42.046Z,12.60
2022-09-23T07:04:11.225Z,12.80
2022-09-23T07:06:39.905Z,13.10
2022-09-23T07:09:11.228Z,13.20
2022-09-23T07:11:39.963Z,13.40
2022-09-23T07:14:08.659Z,13.50
2022-09-23T07:16:37.254Z,13.70
2022-09-23T07:19:05.881Z,13.80
2022-09-23T07:21:34.703Z,13.80
2022-09-23T07:24:04.001Z,13.90
2022-09-23T07:26:34.272Z,14.00
2022-09-23T07:29:05.316Z,14.10
2022-09-23T07:31:39.777Z,14.30
2022-09-23T07:34:11.972Z,14.40
2022-09-23T07:36:42.031Z,14.40
2022-09-23T07:39:12.373Z,14.50
2022-09-23T07:41:44.806Z,14.60
2022-09-23T07:44:13.871Z,14.70
2022-09-23T07:46:42.652Z,14.80
2022-09-23T07:49:11.732Z,15.00
2022-09-23T07:51:42.047Z,15.10
2022-09-23T07:54:14.137Z,15.10
2022-09-23T07:56:45.363Z,15.20
2022-09-23T07:59:18.449Z,15.30
2022-09-23T08:01:49.543Z,15.40
2022-09-23T08:04:21.943Z,15.50
2022-09-23T08:06:53.782Z,15.60
2022-09-23T08:09:24.160Z,15.70
2022-09-23T08:11:55.004Z,15.80
2022-09-23T08:14:25.845Z,15.80
2022-09-23T08:16:54.612Z,15.80
2022-09-23T08:19:23.110Z,15.70
2022-09-23T08:21:52.468Z,15.80
2022-09-23T08:24:24.603Z,16.00
2022-09-23T08:26:56.122Z,16.00
2022-09-23T08:29:28.081Z,16.10
2022-09-23T08:31:56.776Z,16.10
2022-09-23T08:34:28.231Z,16.10
2022-09-23T08:36:56.886Z,16.30
2022-09-23T08:39:25.241Z,16.20
2022-09-23T08:42:07.608Z,16.20
2022-09-23T08:44:50.960Z,16.30
2022-09-23T08:47:24.820Z,16.30
2022-09-23T08:50:03.114Z,16.30
2022-09-23T08:52:38.246Z,16.30
2022-09-23T08:55:13.051Z,16.30
2022-09-23T08:58:14.066Z,16.30
2022-09-23T09:00:43.155Z,16.30
2022-09-23T09:03:22.422Z,16.50
2022-09-23T09:05:54.478Z,16.50
2022-09-23T09:08:29.998Z,16.50
2022-09-23T09:11:00.312Z,16.50
2022-09-23T09:13:35.589Z,16.60
2022-09-23T09:16:41.792Z,16.60
2022-09-23T09:19:19.122Z,16.80
2022-09-23T09:21:50.725Z,17.00
2022-09-23T09:24:23.324Z,17.30
2022-09-23T09:27:10.096Z,17.50
2022-09-23T09:29:43.288Z,17.70
2022-09-23T09:32:19.755Z,17.90
2022-09-23T09:34:55.629Z,18.00
2022-09-23T09:37:31.718Z,18.00
2022-09-23T09:40:00.697Z,18.00
2022-09-23T09:42:39.345Z,18.20
2022-09-23T09:45:20.056Z,18.40
2022-09-23T09:47:57.007Z,18.60
2022-09-23T09:50:44.957Z,18.70
2022-09-23T09:53:22.548Z,18.80
2022-09-23T09:56:04.685Z,19.00
2022-09-23T09:58:46.517Z,19.00
2022-09-23T10:01:25.170Z,19.10
2022-09-23T10:03:59.247Z,19.30
2022-09-23T10:06:30.619Z,19.50
2022-09-23T10:09:14.699Z,19.90
2022-09-23T10:11:43.621Z,20.20
2022-09-23T10:14:19.177Z,20.20
2022-09-23T10:17:05.711Z,20.30
2022-09-23T10:19:37.435Z,20.30
2022-09-23T10:22:19.325Z,20.50
2022-09-23T10:24:51.293Z,20.70
2022-09-23T10:27:31.600Z,20.90
2022-09-23T10:30:03.564Z,20.80
2022-09-23T10:32:37.549Z,20.70
2022-09-23T10:35:15.686Z,20.70
2022-09-23T10:37:48.503Z,20.70
2022-09-23T10:40:38.183Z,20.70
2022-09-23T10:43:38.556Z,20.50
2022-09-23T10:46:27.183Z,20.90
2022-09-23T10:49:23.029Z,21.30
2022-09-23T10:52:03.900Z,21.30
2022-09-23T10:54:42.011Z,21.60
2022-09-23T10:57:41.627Z,22.10
2022-09-23T11:00:23.553Z,23.00
2022-09-23T11:03:25.580Z,23.10
2022-09-23T11:06:04.061Z,23.50
2022-09-23T11:08:51.503Z,24.00
2022-09-23T11:11:30.426Z,24.30
2022-09-23T11:14:17.466Z,24.10
2022-09-23T11:17:05.903Z,24.60
2022-09-23T11:20:00.423Z,25.00
2022-09-23T11:22:53.324Z,24.80
2022-09-23T11:25:38.747Z,25.10
2022-09-23T11:28:27.071Z,25.60
2022-09-23T11:31:10.232Z,25.80
2022-09-23T11:33:53.043Z,25.50
2022-09-23T11:36:28.584Z,25.70
2022-09-23T11:39:03.338Z,25.70
2022-09-23T11:41:35.867Z,26.10
2022-09-23T11:44:14.018Z,25.70
2022-09-23T11:46:45.221Z,25.10
2022-09-23T11:49:18.309Z,25.20
2022-09-23T11:52:04.011Z,25.00
2022-09-23T11:54:42.069Z,24.40
2022-09-23T11:57:26.274Z,24.00
2022-09-23T12:00:00.457Z,24.00
2022-09-23T12:02:37.475Z,23.60
2022-09-23T12:05:12.760Z,23.50
2022-09-23T12:07:51.951Z,23.50
2022-09-23T12:10:49.483Z,23.40
2022-09-23T12:13:25.680Z,23.80
2022-09-23T12:16:10.385Z,24.00
2022-09-23T12:18:49.122Z,23.90
2022-09-23T12:21:50.178Z,23.70
2022-09-23T12:24:37.612Z,23.60
2022-09-23T12:27:12.927Z,23.30
2022-09-23T12:29:43.319Z,23.20
2022-09-23T12:32:19.398Z,22.90
2022-09-23T12:34:52.154Z,22.80
2022-09-23T12:37:30.270Z,22.50
2022-09-23T12:40:07.897Z,22.40
2022-09-23T12:42:44.222Z,22.20
2022-09-23T12:45:35.866Z,22.00
2022-09-23T12:48:06.617Z,21.60
2022-09-23T12:50:52.977Z,21.70
2022-09-23T12:54:27.773Z,21.70
2022-09-23T12:57:07.747Z,21.60
2022-09-23T12:59:59.355Z,21.70
2022-09-23T13:02:36.170Z,21.80
2022-09-23T13:05:37.902Z,21.90
2022-09-23T13:08:10.933Z,21.80
2022-09-23T13:10:44.956Z,21.70
2022-09-23T13:13:23.320Z,21.90
2022-09-23T13:15:55.298Z,21.90
2022-09-23T13:18:56.222Z,21.90
2022-09-23T13:22:14.000Z,21.70
2022-09-23T13:24:55.097Z,21.60
2022-09-23T13:27:31.933Z,21.50
2022-09-23T13:30:07.892Z,21.10
2022-09-23T13:32:42.386Z,21.20
2022-09-23T13:35:22.975Z,21.20
2022-09-23T13:37:52.372Z,21.20
2022-09-23T13:40:32.087Z,21.10
2022-09-23T13:43:04.880Z,20.90
2022-09-23T13:45:43.997Z,20.80
2022-09-23T13:48:18.736Z,20.80
2022-09-23T13:50:53.516Z,20.70
2022-09-23T13:55:55.722Z,20.90
2022-09-23T13:57:48.243Z,21.00
2022-09-23T14:04:06.187Z,21.00
2022-09-23T14:07:14.635Z,20.90
2022-09-23T14:09:53.164Z,21.00
2022-09-23T14:12:23.561Z,20.80
2022-09-23T14:14:54.150Z,20.60
2022-09-23T14:18:30.487Z,20.70
2022-09-23T14:20:50.535Z,21.00
2022-09-23T14:23:21.484Z,21.30
2022-09-23T14:25:54.179Z,21.30
2022-09-23T14:28:25.790Z,21.40
2022-09-23T14:30:57.826Z,21.20
2022-09-23T14:33:30.175Z,21.10
2022-09-23T14:36:33.672Z,20.90
2022-09-23T14:39:11.217Z,20.80
2022-09-23T14:50:46.899Z,20.30
2022-09-23T14:53:15.343Z,20.00
2022-09-23T15:02:44.391Z,19.90
2022-09-23T15:05:19.302Z,19.60
2022-09-23T15:07:51.403Z,19.70
2022-09-23T15:10:24.017Z,19.70
2022-09-23T15:12:54.011Z,19.70
2022-09-23T15:15:28.371Z,19.70
2022-09-23T15:18:06.165Z,19.70
2022-09-23T15:20:36.058Z,19.60
2022-09-23T15:23:04.896Z,19.70
2022-09-23T15:25:36.324Z,19.60
2022-09-23T15:28:21.579Z,19.60
2022-09-23T15:30:51.816Z,19.60
2022-09-23T15:33:28.111Z,19.50
2022-09-23T15:35:57.197Z,19.50
2022-09-23T15:38:26.965Z,19.40
2022-09-23T15:40:55.747Z,19.40
2022-09-23T15:43:27.088Z,19.40
2022-09-23T15:45:58.224Z,19.30
2022-09-23T15:48:32.915Z,19.20
2022-09-23T15:51:07.229Z,19.20
2022-09-23T15:53:37.030Z,19.10
2022-09-23T15:56:06.508Z,19.00
2022-09-23T15:58:36.933Z,19.00
2022-09-23T16:01:06.836Z,18.90
2022-09-23T16:03:37.500Z,18.90
2022-09-23T16:06:07.674Z,18.90
2022-09-23T16:08:37.184Z,18.80
2022-09-23T16:11:07.390Z,18.80
2022-09-23T16:13:37.366Z,18.70
2022-09-23T16:16:08.214Z,18.70
2022-09-23T16:18:42.323Z,18.70
2022-09-23T16:21:13.118Z,18.70
2022-09-23T16:23:47.541Z,18.70
2022-09-23T16:26:20.484Z,18.60
2022-09-23T16:28:52.064Z,18.60
2022-09-23T16:31:21.416Z,18.40
2022-09-23T16:33:52.137Z,18.40
2022-09-23T16:36:26.188Z,18.30
2022-09-23T16:38:56.522Z,18.40
2022-09-23T16:41:26.285Z,18.30
2022-09-23T16:43:55.570Z,18.20
2022-09-23T16:46:25.165Z,18.10
2022-09-23T16:48:57.790Z,18.00
2022-09-23T16:51:28.904Z,17.90
2022-09-23T16:53:59.569Z,17.90
2022-09-23T16:56:29.979Z,17.90
2022-09-23T16:58:58.572Z,17.90
2022-09-23T17:01:46.258Z,17.80
2022-09-23T17:04:18.510Z,17.80
2022-09-23T17:06:50.319Z,17.70
2022-09-23T17:09:19.418Z,17.70
2022-09-23T17:11:49.981Z,17.50
2022-09-23T17:14:18.642Z,17.40
2022-09-23T17:16:47.286Z,17.40
2022-09-23T17:19:17.287Z,17.40
2022-09-23T17:21:45.911Z,17.30
2022-09-23T17:24:14.975Z,17.30
2022-09-23T17:26:47.294Z,17.10
2022-09-23T17:29:17.792Z,17.00
2022-09-23T17:31:46.832Z,16.90
2022-09-23T17:34:19.318Z,16.80
2022-09-23T17:36:47.821Z,16.80
2022-09-23T17:39:16.750Z,16.70
2022-09-23T17:41:45.553Z,16.60
2022-09-23T17:44:15.665Z,16.40
2022-09-23T17:46:55.324Z,16.20
2022-09-23T17:49:52.522Z,16.20
2022-09-23T17:52:50.999Z,16.00
2022-09-23T17:55:50.996Z,15.90
2022-09-23T17:58:26.937Z,16.00
2022-09-23T18:00:56.688Z,15.90
2022-09-23T18:03:26.457Z,16.00
2022-09-23T18:05:56.993Z,16.00
2022-09-23T18:08:25.541Z,15.80
2022-09-23T18:10:54.170Z,15.70
2022-09-23T18:13:22.848Z,15.80
2022-09-23T18:15:51.437Z,15.90
2022-09-23T18:18:20.200Z,15.90
2022-09-23T18:20:48.762Z,15.90
2022-09-23T18:23:22.831Z,15.80
2022-09-23T18:25:54.088Z,15.50
2022-09-23T18:28:22.802Z,15.40
2022-09-23T18:30:55.415Z,15.30
2022-09-23T18:33:24.314Z,15.30
2022-09-23T18:36:07.671Z,15.30
2022-09-23T18:38:38.208Z,15.10
2022-09-23T18:41:07.448Z,15.00
2022-09-23T18:43:41.533Z,14.90
2022-09-23T18:46:14.766Z,14.80
2022-09-23T18:49:01.921Z,14.70
2022-09-23T18:51:32.144Z,14.70
2022-09-23T18:54:05.502Z,14.90
2022-09-23T18:56:37.496Z,14.90
2022-09-23T18:59:07.653Z,15.00
2022-09-23T19:01:36.984Z,15.00
2022-09-23T19:04:08.324Z,14.90
2022-09-23T19:06:37.772Z,14.70
2022-09-23T19:09:08.857Z,14.60
2022-09-23T19:11:37.649Z,14.60
2022-09-23T19:14:09.858Z,14.50
2022-09-23T19:16:40.096Z,14.40
2022-09-23T19:19:09.520Z,14.40
2022-09-23T19:21:38.669Z,14.30
2022-09-23T19:24:09.693Z,14.30
2022-09-23T19:26:40.596Z,14.30
2022-09-23T19:29:14.628Z,14.30
2022-09-23T19:31:43.526Z,14.30
2022-09-23T19:34:15.299Z,14.30
2022-09-23T19:36:45.527Z,14.30
2022-09-23T19:39:18.677Z,14.20
2022-09-23T19:41:48.626Z,14.20
2022-09-23T19:44:17.562Z,14.10
2022-09-23T19:46:51.694Z,14.10
2022-09-23T19:49:24.720Z,14.10
2022-09-23T19:51:56.178Z,14.20
2022-09-23T19:54:31.437Z,14.40
2022-09-23T19:57:00.493Z,14.30
2022-09-23T19:59:29.113Z,14.20
2022-09-23T20:02:00.824Z,14.10
2022-09-23T20:04:29.435Z,14.00
2022-09-23T20:06:57.997Z,13.90
2022-09-23T20:09:27.373Z,13.90
2022-09-23T20:11:57.333Z,14.00
2022-09-23T20:14:27.397Z,14.00
2022-09-23T20:16:55.837Z,14.00
2022-09-23T20:19:24.567Z,14.10
2022-09-23T20:22:13.066Z,14.10
2022-09-23T20:24:41.479Z,14.00
2022-09-23T20:27:10.472Z,14.30
2022-09-23T20:29:39.628Z,14.30
2022-09-23T20:32:09.305Z,14.20
2022-09-23T20:34:37.895Z,14.30
2022-09-23T20:37:06.682Z,14.10
2022-09-23T20:39:35.386Z,14.10
2022-09-23T20:42:04.304Z,14.20
2022-09-23T20:44:34.514Z,14.00
2022-09-23T20:47:03.391Z,14.20
2022-09-23T20:49:34.286Z,14.00
2022-09-23T20:52:03.392Z,13.90
2022-09-23T20:54:32.889Z,13.90
2022-09-23T20:57:02.064Z,13.70
2022-09-23T20:59:30.631Z,13.80
2022-09-23T21:02:02.112Z,14.00
2022-09-23T21:04:31.351Z,14.10
2022-09-23T21:07:00.548Z,14.00
2022-09-23T21:09:31.086Z,14.10
2022-09-23T21:12:00.832Z,14.10
2022-09-23T21:14:29.635Z,14.00
2022-09-23T21:16:59.360Z,13.90
2022-09-23T21:19:29.497Z,13.80
2022-09-23T21:21:58.049Z,13.80
2022-09-23T21:27:14.944Z,13.70
2022-09-23T21:29:43.504Z,13.70
2022-09-23T21:32:12.058Z,13.70
2022-09-23T21:34:42.315Z,13.60
2022-09-23T21:37:10.838Z,13.50
2022-09-23T21:39:39.215Z,13.40
2022-09-23T21:42:07.819Z,13.40
2022-09-23T21:44:36.776Z,13.40
2022-09-23T21:47:05.382Z,13.50
2022-09-23T21:49:33.825Z,13.60
2022-09-23T21:52:04.098Z,13.50
2022-09-23T21:54:32.679Z,13.60
2022-09-23T21:57:01.205Z,13.60
2022-09-23T21:59:30.310Z,13.60
2022-09-23T22:01:59.415Z,13.50
2022-09-23T22:04:28.070Z,13.50
2022-09-23T22:06:57.569Z,13.50
2022-09-23T22:09:51.137Z,13.50
2022-09-23T22:13:49.997Z,13.60
2022-09-23T22:21:27.392Z,14.00
2022-09-23T22:24:49.369Z,14.20
2022-09-23T22:28:06.481Z,14.50
2022-09-23T22:31:18.134Z,14.50
2022-09-23T22:34:51.033Z,14.60
2022-09-23T22:41:10.527Z,14.40
2022-09-23T22:44:01.721Z,14.40
2022-09-23T22:47:05.937Z,14.50
2022-09-23T23:03:43.883Z,14.40
2022-09-23T23:06:22.211Z,14.40
2022-09-23T23:09:09.561Z,14.40
2022-09-23T23:12:01.441Z,14.40
2022-09-23T23:14:58.692Z,14.50
2022-09-23T23:18:15.490Z,14.50
2022-09-23T23:21:32.471Z,14.30
2022-09-23T23:24:52.820Z,14.40
2022-09-23T23:28:06.105Z,14.30
2022-09-23T23:30:52.176Z,14.10
2022-09-23T23:33:32.023Z,14.10
2022-09-23T23:36:32.122Z,14.10
2022-09-23T23:39:47.536Z,14.00
2022-09-23T23:42:28.335Z,13.90
2022-09-23T23:45:20.215Z,14.00
2022-09-23T23:47:54.629Z,14.00
2022-09-23T23:50:46.555Z,13.90
2022-09-23T23:53:23.042Z,13.80
2022-09-23T23:55:56.562Z,13.90
2022-09-23T23:58:25.663Z,13.90
